Time;durP1;ratioP1;P1;durP2;ratioP2;P2;SDS_P1;SDS_P2;PMS_P1;PMS_P2;Temp;Humidity;BMP_temperature;BMP_pressure;BME280_temperature;BME280_humidity;BME280_pressure;Samples;Min_cycle;Max_cycle;Signal;HPM_P1;HPM_P2
2023/05/17 00:00:48;;;;;;;837.33;770.47;;;6.00;99.90;;;;;;5091094;28;20445;-63
2023/05/17 00:03:15;;;;;;;843.47;775.00;;;6.00;99.90;;;;;;5090961;28;20450;-63
2023/05/17 00:05:43;;;;;;;842.97;771.03;;;5.90;99.90;;;;;;5093244;28;20824;-64
2023/05/17 00:08:10;;;;;;;834.33;763.73;;;6.00;99.90;;;;;;5085335;28;20488;-63
2023/05/17 00:10:37;;;;;;;837.00;767.07;;;6.00;99.90;;;;;;5070845;28;20454;-63
2023/05/17 00:13:03;;;;;;;831.33;760.23;;;6.00;99.90;;;;;;5086691;28;20813;-63
2023/05/17 00:15:30;;;;;;;846.03;775.33;;;6.00;99.90;;;;;;5092287;28;20445;-63
2023/05/17 00:17:57;;;;;;;846.37;771.80;;;5.90;99.90;;;;;;5091782;28;20445;-63
2023/05/17 00:20:24;;;;;;;837.70;762.03;;;6.00;99.90;;;;;;5090192;28;20441;-63
2023/05/17 00:22:52;;;;;;;827.67;752.27;;;6.10;99.90;;;;;;5074757;28;20737;-63
2023/05/17 00:25:19;;;;;;;833.70;758.90;;;6.20;99.90;;;;;;5072575;28;20477;-63
2023/05/17 00:27:46;;;;;;;831.37;757.77;;;6.20;99.90;;;;;;5072180;28;20478;-64
2023/05/17 00:30:13;;;;;;;844.88;771.92;;;6.20;99.90;;;;;;5070911;28;20453;-63
2023/05/17 00:32:40;;;;;;;847.57;775.53;;;6.20;99.90;;;;;;5087396;28;20562;-63
2023/05/17 00:35:07;;;;;;;836.37;765.10;;;6.20;99.90;;;;;;5092488;28;20536;-64
2023/05/17 00:37:34;;;;;;;845.10;773.60;;;6.10;99.90;;;;;;5092351;28;20449;-64
2023/05/17 00:40:02;;;;;;;852.10;780.43;;;6.00;99.90;;;;;;5076083;28;20454;-64
2023/05/17 00:42:29;;;;;;;844.97;774.53;;;6.10;99.90;;;;;;5070993;28;20454;-64
2023/05/17 00:44:56;;;;;;;849.57;781.73;;;6.10;99.90;;;;;;5072727;28;20851;-63
2023/05/17 00:47:23;;;;;;;848.67;781.00;;;6.00;99.90;;;;;;5079439;28;20456;-64
2023/05/17 00:49:50;;;;;;;857.47;788.65;;;5.90;99.90;;;;;;5088885;28;20445;-64
2023/05/17 00:52:17;;;;;;;844.97;775.80;;;5.80;99.90;;;;;;5085191;28;20246;-64
2023/05/17 00:54:44;;;;;;;842.30;773.70;;;5.90;99.90;;;;;;5071802;28;20946;-64
2023/05/17 00:57:13;;;;;;;844.03;777.60;;;5.90;99.90;;;;;;5072030;28;20457;-64
2023/05/17 00:59:40;;;;;;;850.87;784.30;;;5.80;99.90;;;;;;5083784;28;20551;-64
2023/05/17 01:02:07;;;;;;;842.60;773.10;;;5.80;99.90;;;;;;5071638;28;20821;-64
2023/05/17 01:04:34;;;;;;;843.00;773.00;;;5.80;99.90;;;;;;5071504;28;20450;-64
2023/05/17 01:07:01;;;;;;;846.30;776.17;;;5.70;99.90;;;;;;5092136;28;20952;-64
2023/05/17 01:09:28;;;;;;;841.33;770.23;;;5.80;99.90;;;;;;5090627;28;20484;-64
2023/05/17 01:12:06;;;;;;;841.30;769.13;;;5.70;99.90;;;;;;5090888;28;20822;-64
2023/05/17 01:14:47;;;;;;;840.03;770.07;;;5.70;99.90;;;;;;5081932;28;20967;-64
2023/05/17 01:17:17;;;;;;;846.83;776.00;;;5.70;99.90;;;;;;5095586;28;20437;-64
2023/05/17 01:19:57;;;;;;;839.90;770.80;;;5.70;99.90;;;;;;5079352;28;20449;-64
2023/05/17 01:22:32;;;;;;;842.03;770.67;;;5.70;99.90;;;;;;5093560;28;20464;-64
2023/05/17 01:25:23;;;;;;;844.63;775.03;;;5.70;99.90;;;;;;5095358;28;20446;-64
2023/05/17 01:27:57;;;;;;;849.17;782.40;;;5.60;99.90;;;;;;5095312;28;20207;-64
2023/05/17 01:30:26;;;;;;;846.90;778.77;;;5.70;99.90;;;;;;5093884;28;20453;-64
2023/05/17 01:32:56;;;;;;;848.23;778.63;;;5.60;99.90;;;;;;5093491;28;20454;-64
2023/05/17 01:35:23;;;;;;;843.87;773.73;;;5.60;99.90;;;;;;5096926;28;20461;-63
2023/05/17 01:37:50;;;;;;;841.30;770.50;;;5.60;99.90;;;;;;5095132;28;20449;-64
2023/05/17 01:40:18;;;;;;;842.80;768.33;;;5.60;99.90;;;;;;5093466;28;20452;-63
2023/05/17 01:42:46;;;;;;;845.00;769.20;;;5.60;99.90;;;;;;5093624;28;20456;-63
2023/05/17 01:45:21;;;;;;;838.63;763.23;;;5.60;99.90;;;;;;5095511;28;20203;-63
2023/05/17 01:47:53;;;;;;;834.50;757.23;;;5.60;99.90;;;;;;5094899;28;20480;-63
2023/05/17 01:50:29;;;;;;;836.07;758.33;;;5.70;99.90;;;;;;5093539;28;20445;-63
2023/05/17 01:53:05;;;;;;;835.95;755.50;;;5.70;99.90;;;;;;5091349;28;20941;-63
2023/05/17 01:55:42;;;;;;;833.83;754.10;;;5.80;99.90;;;;;;5095453;28;20188;-63
2023/05/17 01:58:10;;;;;;;831.40;749.80;;;5.70;99.90;;;;;;5094393;28;20444;-63
2023/05/17 02:00:39;;;;;;;829.33;747.13;;;5.70;99.90;;;;;;5093143;28;20446;-63
2023/05/17 02:03:06;;;;;;;829.00;747.10;;;5.70;99.90;;;;;;5093801;28;20518;-63
2023/05/17 02:05:33;;;;;;;823.83;739.80;;;5.70;99.90;;;;;;5095113;28;20458;-63
2023/05/17 02:08:00;;;;;;;821.07;739.37;;;5.70;99.90;;;;;;5093925;28;20476;-63
2023/05/17 02:10:27;;;;;;;826.50;743.53;;;5.70;99.90;;;;;;5093460;28;20456;-63
2023/05/17 02:12:53;;;;;;;826.15;743.03;;;5.60;99.90;;;;;;5093030;28;20441;-63
2023/05/17 02:15:20;;;;;;;808.67;727.80;;;5.70;99.90;;;;;;5094731;28;20192;-63
2023/05/17 02:17:48;;;;;;;823.20;743.10;;;5.60;99.90;;;;;;5094182;28;20450;-63
2023/05/17 02:20:15;;;;;;;827.10;748.10;;;5.50;99.90;;;;;;5092126;28;20449;-63
2023/05/17 02:22:42;;;;;;;825.50;747.80;;;5.50;99.90;;;;;;5092095;28;20450;-63
2023/05/17 02:25:09;;;;;;;837.75;762.13;;;5.50;99.90;;;;;;5094678;28;20200;-63
2023/05/17 02:27:36;;;;;;;836.70;760.80;;;5.50;99.90;;;;;;5093547;28;20192;-63
2023/05/17 02:30:04;;;;;;;833.60;757.58;;;5.50;99.90;;;;;;5092556;28;20843;-63
2023/05/17 02:32:31;;;;;;;830.47;754.17;;;5.50;99.90;;;;;;5092915;28;20199;-63
2023/05/17 02:35:00;;;;;;;831.93;753.53;;;5.40;99.90;;;;;;5094148;28;20441;-63
2023/05/17 02:37:26;;;;;;;828.33;750.53;;;5.20;99.90;;;;;;5094880;28;20450;-62
2023/05/17 02:39:53;;;;;;;829.60;749.70;;;5.20;99.90;;;;;;5092847;28;20446;-63
2023/05/17 02:42:20;;;;;;;829.83;746.67;;;5.10;99.90;;;;;;5083908;28;20794;-62
2023/05/17 02:44:51;;;;;;;820.75;736.63;;;5.20;99.90;;;;;;5093675;28;20199;-65
2023/05/17 02:47:19;;;;;;;827.37;744.50;;;5.20;99.90;;;;;;5094329;28;20194;-65
2023/05/17 02:49:46;;;;;;;823.43;741.80;;;5.20;99.90;;;;;;5092440;28;20473;-65
2023/05/17 02:52:14;;;;;;;831.97;748.25;;;5.20;99.90;;;;;;5091915;28;20461;-66
2023/05/17 02:54:42;;;;;;;823.40;738.90;;;5.20;99.90;;;;;;5091870;28;20647;-65
2023/05/17 02:57:09;;;;;;;824.20;739.47;;;5.30;99.90;;;;;;5094920;28;20853;-63
2023/05/17 02:59:36;;;;;;;821.43;736.90;;;5.30;99.90;;;;;;5092324;28;20453;-65
2023/05/17 03:02:02;;;;;;;810.33;724.00;;;5.30;99.90;;;;;;5091984;28;20457;-65
2023/05/17 03:04:29;;;;;;;795.03;709.30;;;5.40;99.90;;;;;;5093079;28;20441;-65
2023/05/17 03:06:56;;;;;;;807.73;722.53;;;5.40;99.90;;;;;;5093855;28;20459;-65
2023/05/17 03:09:24;;;;;;;808.78;725.20;;;5.40;99.90;;;;;;5091894;28;20478;-64
2023/05/17 03:11:51;;;;;;;805.53;720.97;;;5.30;99.90;;;;;;5087453;28;20199;-64
2023/05/17 03:14:17;;;;;;;808.67;723.13;;;5.30;99.90;;;;;;5073099;28;20458;-64
2023/05/17 03:16:44;;;;;;;817.07;733.80;;;5.40;99.90;;;;;;5073913;28;20454;-64
2023/05/17 03:19:11;;;;;;;821.03;736.80;;;5.40;99.90;;;;;;5071949;28;20807;-64
2023/05/17 03:21:38;;;;;;;828.35;743.85;;;5.40;99.90;;;;;;5071713;28;20451;-64
2023/05/17 03:24:05;;;;;;;824.33;740.43;;;5.40;99.90;;;;;;5071983;28;20196;-64
2023/05/17 03:26:33;;;;;;;830.83;745.83;;;5.50;99.90;;;;;;5073888;28;20465;-64
2023/05/17 03:29:00;;;;;;;833.50;746.27;;;5.50;99.90;;;;;;5071279;28;20481;-64
2023/05/17 03:31:27;;;;;;;839.90;751.10;;;5.50;99.90;;;;;;5071508;28;20454;-64
2023/05/17 03:33:53;;;;;;;831.60;747.23;;;5.50;99.90;;;;;;5071890;28;20455;-64
2023/05/17 03:36:20;;;;;;;828.80;746.20;;;5.60;99.90;;;;;;5073932;28;20565;-64
2023/05/17 03:38:47;;;;;;;817.50;731.60;;;5.60;99.90;;;;;;5077790;28;20445;-64
2023/05/17 03:41:14;;;;;;;816.47;732.63;;;5.70;99.90;;;;;;5091247;28;20282;-64
2023/05/17 03:43:43;;;;;;;818.03;731.90;;;5.80;99.90;;;;;;5091597;28;20450;-64
2023/05/17 03:46:10;;;;;;;823.13;736.53;;;5.80;99.90;;;;;;5093916;28;20449;-64
2023/05/17 03:48:37;;;;;;;837.60;748.30;;;5.90;99.90;;;;;;5089739;28;20554;-64
2023/05/17 03:51:04;;;;;;;831.20;742.53;;;5.80;99.90;;;;;;5091048;28;20457;-65
2023/05/17 03:53:31;;;;;;;831.20;741.83;;;5.70;99.90;;;;;;5091612;28;20449;-64
2023/05/17 03:55:58;;;;;;;825.73;737.23;;;5.80;99.90;;;;;;5093665;28;20460;-64
2023/05/17 03:58:25;;;;;;;841.47;752.07;;;5.80;99.90;;;;;;5091847;28;20457;-64
2023/05/17 04:00:53;;;;;;;824.40;735.80;;;5.80;99.90;;;;;;5083724;28;20452;-62
2023/05/17 04:03:19;;;;;;;816.97;728.20;;;5.90;99.90;;;;;;5071252;28;20461;-62
2023/05/17 04:05:46;;;;;;;820.00;731.53;;;5.90;99.90;;;;;;5073192;28;20462;-62
2023/05/17 04:08:13;;;;;;;831.53;740.80;;;6.10;99.90;;;;;;5083836;28;20505;-62
2023/05/17 04:10:41;;;;;;;820.60;731.63;;;6.10;99.90;;;;;;5090816;28;20230;-62
2023/05/17 04:13:08;;;;;;;800.33;707.13;;;6.50;99.90;;;;;;5091416;28;20454;-62
2023/05/17 04:15:35;;;;;;;815.90;725.77;;;6.60;99.90;;;;;;5093182;28;20450;-62
2023/05/17 04:18:03;;;;;;;856.20;720.17;;;6.80;99.90;;;;;;5084592;28;20457;-62
2023/05/17 04:20:30;;;;;;;841.90;720.57;;;7.10;99.90;;;;;;5070746;28;20651;-62
2023/05/17 04:22:56;;;;;;;834.40;709.57;;;7.20;99.90;;;;;;5071096;28;20950;-62
2023/05/17 04:25:23;;;;;;;831.40;701.30;;;7.30;99.90;;;;;;5072774;28;20450;-62
2023/05/17 04:27:50;;;;;;;834.30;712.93;;;7.40;99.90;;;;;;5071829;28;20520;-62
2023/05/17 04:30:17;;;;;;;835.40;702.50;;;7.50;99.90;;;;;;5070579;28;20481;-62
2023/05/17 04:32:44;;;;;;;830.65;710.22;;;7.60;99.90;;;;;;5070963;28;20455;-62
2023/05/17 04:35:12;;;;;;;800.85;703.90;;;7.70;99.90;;;;;;5072121;28;20192;-62
2023/05/17 04:37:39;;;;;;;791.70;704.20;;;7.70;99.90;;;;;;5072124;28;20232;-63
2023/05/17 04:40:07;;;;;;;789.95;702.50;;;7.80;99.90;;;;;;5070788;28;20452;-63
2023/05/17 04:42:34;;;;;;;784.43;699.40;;;7.90;99.90;;;;;;5071161;28;20196;-63
2023/05/17 04:45:01;;;;;;;784.80;701.75;;;7.90;99.90;;;;;;5071994;28;20823;-63
2023/05/17 04:47:28;;;;;;;782.33;702.40;;;8.00;99.90;;;;;;5077299;28;20187;-63
2023/05/17 04:49:55;;;;;;;782.90;704.00;;;7.90;99.90;;;;;;5081890;28;20466;-63
2023/05/17 04:52:23;;;;;;;771.97;693.80;;;8.10;99.90;;;;;;5077238;28;20198;-63
2023/05/17 04:54:50;;;;;;;764.20;686.10;;;8.10;99.90;;;;;;5094620;28;20450;-63
2023/05/17 04:57:17;;;;;;;779.30;701.43;;;8.20;99.90;;;;;;5096517;28;20465;-63
2023/05/17 04:59:45;;;;;;;771.37;694.13;;;8.20;99.90;;;;;;5093996;28;20448;-63
2023/05/17 05:02:11;;;;;;;771.67;695.07;;;8.20;99.90;;;;;;5092243;28;20446;-63
2023/05/17 05:04:38;;;;;;;781.00;706.43;;;8.30;99.90;;;;;;5093969;28;20540;-63
2023/05/17 05:07:05;;;;;;;775.50;705.30;;;8.30;99.90;;;;;;5096250;28;20453;-63
2023/05/17 05:09:34;;;;;;;777.60;708.13;;;8.40;99.90;;;;;;5094107;28;20492;-63
2023/05/17 05:12:00;;;;;;;769.80;700.20;;;8.40;99.90;;;;;;5093797;28;20454;-63
2023/05/17 05:14:27;;;;;;;777.67;709.57;;;8.60;99.90;;;;;;5094624;28;20944;-63
2023/05/17 05:16:54;;;;;;;779.53;713.33;;;8.50;99.90;;;;;;5096102;28;20807;-64
2023/05/17 05:19:21;;;;;;;781.70;717.40;;;8.50;99.90;;;;;;5094338;28;20455;-64
2023/05/17 05:21:48;;;;;;;780.07;719.27;;;8.60;99.90;;;;;;5093567;28;20445;-64
2023/05/17 05:24:15;;;;;;;783.33;721.00;;;8.60;99.90;;;;;;5094267;28;20460;-64
2023/05/17 05:26:44;;;;;;;774.83;713.23;;;8.60;99.90;;;;;;5096316;28;20456;-64
2023/05/17 05:29:11;;;;;;;767.93;715.30;;;8.80;99.90;;;;;;5078143;28;21040;-64
2023/05/17 05:31:38;;;;;;;779.23;724.17;;;8.70;99.90;;;;;;5073176;28;20451;-64
2023/05/17 05:34:04;;;;;;;772.33;716.50;;;8.80;99.90;;;;;;5087281;28;20461;-64
2023/05/17 05:36:31;;;;;;;764.50;714.00;;;8.90;99.90;;;;;;5096338;28;20453;-64
2023/05/17 05:38:58;;;;;;;739.13;695.33;;;9.10;99.90;;;;;;5088368;28;20541;-64
2023/05/17 05:41:25;;;;;;;622.43;594.10;;;9.10;99.90;;;;;;5094018;28;20449;-64
2023/05/17 05:43:53;;;;;;;640.40;609.97;;;9.20;99.90;;;;;;5092256;28;20811;-64
2023/05/17 05:46:20;;;;;;;590.53;564.23;;;9.10;99.90;;;;;;5096399;28;20454;-64
2023/05/17 05:48:46;;;;;;;588.10;562.00;;;9.30;99.90;;;;;;5092031;28;20453;-64
2023/05/17 05:51:13;;;;;;;546.23;521.83;;;9.50;99.90;;;;;;5091692;28;20446;-65
2023/05/17 05:53:40;;;;;;;434.77;415.73;;;9.60;99.90;;;;;;5092430;28;20479;-65
2023/05/17 05:56:08;;;;;;;412.20;395.47;;;9.70;99.90;;;;;;5095971;28;20787;-65
2023/05/17 05:58:35;;;;;;;373.87;357.57;;;9.90;99.90;;;;;;5093175;28;20453;-65
2023/05/17 06:01:03;;;;;;;301.20;289.47;;;10.00;99.90;;;;;;5092326;28;20925;-65
2023/05/17 06:03:30;;;;;;;274.90;262.27;;;10.20;99.90;;;;;;5093301;28;20456;-65
2023/05/17 06:05:57;;;;;;;148.37;141.60;;;10.40;99.90;;;;;;5095458;28;20465;-65
2023/05/17 06:08:23;;;;;;;225.90;217.37;;;10.60;99.90;;;;;;5093342;28;20453;-65
2023/05/17 06:10:50;;;;;;;118.23;112.90;;;10.80;99.90;;;;;;5079462;28;20471;-65
2023/05/17 06:13:17;;;;;;;82.80;79.27;;;10.60;99.90;;;;;;5071414;28;20450;-65
2023/05/17 06:15:44;;;;;;;27.40;23.13;;;10.70;99.90;;;;;;5055170;28;20447;-65
2023/05/17 06:18:12;;;;;;;20.43;16.97;;;10.80;99.90;;;;;;5066950;28;20450;-65
2023/05/17 06:20:38;;;;;;;26.53;13.77;;;10.90;99.90;;;;;;5069745;28;20450;-65
2023/05/17 06:23:05;;;;;;;18.73;10.63;;;11.00;99.90;;;;;;5070845;28;20458;-65
2023/05/17 06:25:32;;;;;;;27.23;10.87;;;11.10;99.90;;;;;;5073531;28;20542;-65
2023/05/17 06:28:01;;;;;;;14.77;8.07;;;11.10;99.90;;;;;;5071672;28;20454;-65
2023/05/17 06:30:28;;;;;;;19.93;8.60;;;11.20;99.90;;;;;;5071898;28;20505;-65
2023/05/17 06:32:55;;;;;;;23.87;7.50;;;11.30;99.90;;;;;;5069408;28;20450;-64
2023/05/17 06:35:23;;;;;;;22.67;9.13;;;11.40;99.90;;;;;;5072901;28;20446;-64
2023/05/17 06:37:49;;;;;;;18.97;7.67;;;11.40;99.90;;;;;;5072743;28;20447;-64
2023/05/17 06:40:16;;;;;;;25.57;10.50;;;11.50;99.90;;;;;;5069896;28;20478;-64
2023/05/17 06:42:43;;;;;;;23.27;9.50;;;11.50;99.90;;;;;;5070687;28;20450;-64
2023/05/17 06:45:11;;;;;;;23.27;10.17;;;11.30;99.90;;;;;;5073655;28;20193;-64
2023/05/17 06:47:38;;;;;;;19.87;9.20;;;11.40;99.90;;;;;;5072846;28;20462;-66
2023/05/17 06:50:05;;;;;;;21.17;8.70;;;11.60;99.90;;;;;;5071341;28;20828;-65
2023/05/17 06:52:33;;;;;;;17.03;7.20;;;11.70;99.90;;;;;;5071769;28;20474;-64
2023/05/17 06:55:00;;;;;;;16.42;7.57;;;11.70;99.90;;;;;;5073470;28;20455;-64
2023/05/17 06:57:27;;;;;;;16.30;5.63;;;11.90;99.90;;;;;;5073629;28;20206;-64
2023/05/17 06:59:54;;;;;;;17.63;6.10;;;12.00;99.90;;;;;;5071997;28;20443;-64
2023/05/17 07:02:20;;;;;;;22.00;4.97;;;11.90;99.90;;;;;;5071041;28;20458;-64
2023/05/17 07:04:47;;;;;;;9.80;5.50;;;12.20;99.90;;;;;;5071692;28;20459;-64
2023/05/17 07:07:14;;;;;;;13.20;5.57;;;12.00;99.90;;;;;;5072920;28;20447;-64
2023/05/17 07:09:42;;;;;;;9.37;3.13;;;12.10;99.90;;;;;;5069927;28;20487;-64
2023/05/17 07:12:09;;;;;;;6.47;2.47;;;12.40;99.90;;;;;;5066247;28;20462;-64
2023/05/17 07:14:36;;;;;;;15.10;3.97;;;12.40;99.30;;;;;;5070332;28;20526;-64
2023/05/17 07:17:03;;;;;;;18.77;3.23;;;12.30;99.40;;;;;;5072628;28;20958;-65
2023/05/17 07:19:29;;;;;;;11.50;3.83;;;12.20;96.20;;;;;;5068446;28;20458;-64
2023/05/17 07:21:56;;;;;;;12.80;2.90;;;12.50;97.80;;;;;;5069237;28;20797;-64
2023/05/17 07:24:23;;;;;;;19.53;3.27;;;12.70;93.00;;;;;;5070895;28;20534;-64
2023/05/17 07:26:51;;;;;;;7.90;2.10;;;12.70;92.10;;;;;;5073412;28;20814;-65
2023/05/17 07:29:18;;;;;;;7.53;2.70;;;12.70;94.40;;;;;;5068707;28;20791;-64
2023/05/17 07:31:45;;;;;;;12.57;3.50;;;12.90;91.00;;;;;;5069426;28;20476;-65
2023/05/17 07:34:11;;;;;;;12.98;3.40;;;13.00;92.20;;;;;;5068239;28;20457;-65
2023/05/17 07:36:38;;;;;;;9.60;2.67;;;12.90;90.80;;;;;;5073722;28;20220;-64
2023/05/17 07:39:05;;;;;;;12.27;2.23;;;13.20;87.60;;;;;;5070079;28;20452;-65
2023/05/17 07:41:32;;;;;;;12.07;3.40;;;13.00;90.90;;;;;;5070192;28;20451;-64
2023/05/17 07:44:02;;;;;;;12.07;2.13;;;13.10;90.40;;;;;;5069951;28;20436;-65
2023/05/17 07:46:28;;;;;;;7.07;1.60;;;13.10;89.70;;;;;;5073752;28;20783;-66
2023/05/17 07:48:55;;;;;;;9.33;2.57;;;12.50;83.10;;;;;;5068818;28;20446;-65
2023/05/17 07:51:22;;;;;;;7.20;2.43;;;12.50;85.50;;;;;;5068537;28;20478;-65
2023/05/17 07:53:49;;;;;;;10.60;2.05;;;12.50;85.70;;;;;;5070456;28;20457;-64
2023/05/17 07:56:16;;;;;;;10.73;2.00;;;12.50;83.40;;;;;;5073695;28;20539;-65
2023/05/17 07:58:43;;;;;;;6.77;2.00;;;12.30;79.00;;;;;;5069550;28;20451;-64
2023/05/17 08:01:11;;;;;;;6.43;1.70;;;12.10;83.40;;;;;;5069802;28;20542;-65
2023/05/17 08:03:38;;;;;;;9.87;2.60;;;11.80;81.50;;;;;;5053677;28;20459;-64
2023/05/17 08:06:05;;;;;;;15.80;3.13;;;11.90;87.80;;;;;;5084819;28;20465;-66
2023/05/17 08:08:32;;;;;;;5.90;2.35;;;12.50;90.30;;;;;;5091756;28;20449;-65
2023/05/17 08:10:58;;;;;;;9.40;2.80;;;12.50;84.30;;;;;;5090507;28;20215;-65
2023/05/17 08:13:25;;;;;;;6.63;2.20;;;12.40;84.00;;;;;;5091744;28;20506;-65
2023/05/17 08:15:52;;;;;;;9.60;2.40;;;12.50;87.50;;;;;;5093543;28;20461;-66
2023/05/17 08:18:20;;;;;;;11.07;4.07;;;12.30;86.70;;;;;;5092122;28;20943;-64
2023/05/17 08:20:48;;;;;;;13.83;2.90;;;12.50;82.50;;;;;;5088549;28;20454;-64
2023/05/17 08:23:15;;;;;;;7.67;2.80;;;12.40;80.60;;;;;;5091588;28;20449;-64
2023/05/17 08:25:42;;;;;;;9.37;2.80;;;12.30;79.00;;;;;;5096382;28;20455;-64
2023/05/17 08:28:09;;;;;;;7.60;2.90;;;12.50;79.20;;;;;;5090697;28;20532;-64
2023/05/17 08:30:35;;;;;;;14.85;3.38;;;12.40;77.30;;;;;;5095385;28;20473;-64
2023/05/17 08:33:02;;;;;;;14.83;2.63;;;12.70;79.40;;;;;;5095372;28;20453;-65
2023/05/17 08:35:31;;;;;;;6.93;2.80;;;12.90;78.30;;;;;;5096803;28;20453;-64
2023/05/17 08:37:57;;;;;;;10.13;1.80;;;12.90;75.80;;;;;;5096379;28;20441;-64
2023/05/17 08:40:24;;;;;;;7.80;2.33;;;12.90;72.50;;;;;;5092147;28;20476;-64
2023/05/17 08:42:52;;;;;;;10.45;3.20;;;13.00;79.70;;;;;;5093789;28;20455;-64
2023/05/17 08:45:20;;;;;;;10.67;2.47;;;13.10;77.30;;;;;;5096488;28;20196;-64
2023/05/17 08:47:47;;;;;;;6.87;2.10;;;13.00;78.30;;;;;;5096217;28;20507;-64
2023/05/17 08:50:16;;;;;;;6.23;2.00;;;12.90;73.90;;;;;;5094950;28;20555;-64
2023/05/17 08:52:46;;;;;;;6.37;2.30;;;12.60;73.80;;;;;;5095267;28;20449;-63
2023/05/17 08:55:15;;;;;;;5.53;2.13;;;12.60;72.30;;;;;;5096185;28;20456;-64
2023/05/17 08:57:43;;;;;;;8.63;3.80;;;12.60;71.90;;;;;;5095952;28;20972;-64
2023/05/17 09:00:13;;;;;;;10.80;2.53;;;12.50;71.30;;;;;;5094347;28;20936;-64
2023/05/17 09:02:40;;;;;;;5.97;2.00;;;12.80;79.50;;;;;;5094446;28;20448;-64
2023/05/17 09:05:08;;;;;;;6.90;1.47;;;13.30;70.30;;;;;;5095383;28;20549;-64
2023/05/17 09:07:35;;;;;;;10.27;5.00;;;13.40;68.90;;;;;;5095688;28;20828;-64
2023/05/17 09:10:04;;;;;;;9.57;2.00;;;13.20;67.30;;;;;;5094211;28;20514;-64
2023/05/17 09:12:33;;;;;;;7.33;1.77;;;13.10;65.70;;;;;;5094510;28;20239;-63
2023/05/17 09:15:13;;;;;;;18.50;2.67;;;12.90;68.20;;;;;;5095334;28;20453;-64
2023/05/17 09:17:40;;;;;;;8.25;2.00;;;13.20;65.80;;;;;;5095556;28;20849;-64
2023/05/17 09:20:08;;;;;;;11.30;3.20;;;14.00;64.60;;;;;;5094268;28;20196;-64
2023/05/17 09:22:35;;;;;;;5.07;1.60;;;14.60;68.90;;;;;;5093858;28;20450;-64
2023/05/17 09:25:03;;;;;;;11.90;3.13;;;14.90;65.50;;;;;;5094760;28;20515;-64
2023/05/17 09:27:31;;;;;;;14.07;2.45;;;15.20;58.90;;;;;;5095618;28;20456;-64
2023/05/17 09:29:58;;;;;;;8.97;2.60;;;15.10;55.90;;;;;;5093975;28;20250;-64
2023/05/17 09:32:27;;;;;;;12.60;2.80;;;15.70;60.40;;;;;;5093742;28;20945;-64
2023/05/17 09:34:55;;;;;;;5.70;2.13;;;16.40;53.80;;;;;;5095199;28;20463;-64
2023/05/17 09:37:24;;;;;;;11.17;2.63;;;16.30;48.30;;;;;;5094645;28;20796;-64
2023/05/17 09:39:51;;;;;;;5.13;1.97;;;17.70;42.20;;;;;;5093809;28;20939;-64
2023/05/17 09:42:25;;;;;;;12.60;2.47;;;17.10;38.60;;;;;;5093589;28;20476;-64
2023/05/17 09:44:56;;;;;;;10.50;2.10;;;16.10;40.70;;;;;;5094884;28;20472;-64
2023/05/17 09:47:28;;;;;;;8.33;2.50;;;16.80;46.50;;;;;;5095571;28;20441;-64
2023/05/17 09:49:59;;;;;;;11.23;2.90;;;17.20;34.50;;;;;;5093833;28;20494;-64
2023/05/17 09:52:30;;;;;;;8.23;2.00;;;18.10;39.70;;;;;;5093710;28;20834;-64
2023/05/17 09:54:58;;;;;;;5.07;1.53;;;17.90;33.30;;;;;;5094957;28;20489;-64
2023/05/17 09:57:27;;;;;;;14.13;2.70;;;18.30;31.50;;;;;;5095001;28;20452;-64
2023/05/17 09:59:56;;;;;;;5.50;1.43;;;18.30;32.70;;;;;;5093806;28;20450;-64
2023/05/17 10:02:27;;;;;;;11.43;2.00;;;17.30;25.10;;;;;;5093439;28;20505;-64
2023/05/17 10:04:56;;;;;;;13.40;2.60;;;17.60;28.80;;;;;;5094765;28;20425;-64
2023/05/17 10:07:25;;;;;;;9.10;1.50;;;17.90;28.40;;;;;;5094406;28;20442;-64
2023/05/17 10:09:53;;;;;;;7.53;3.13;;;18.80;26.20;;;;;;5093458;28;20446;-64
2023/05/17 10:12:23;;;;;;;10.07;2.27;;;18.30;22.80;;;;;;5093298;28;20259;-64
2023/05/17 10:14:54;;;;;;;11.38;2.38;;;18.00;40.20;;;;;;5094437;28;20456;-64
2023/05/17 10:17:22;;;;;;;10.43;2.03;;;16.90;38.50;;;;;;5094641;28;20279;-64
2023/05/17 10:19:50;;;;;;;9.43;1.80;;;16.10;44.90;;;;;;5093361;28;20453;-64
2023/05/17 10:22:17;;;;;;;12.30;2.23;;;16.00;45.00;;;;;;5093159;28;20479;-64
2023/05/17 10:24:45;;;;;;;8.13;1.97;;;15.40;42.90;;;;;;5093897;28;20456;-64
2023/05/17 10:27:13;;;;;;;7.60;1.80;;;14.80;39.50;;;;;;5094826;28;20451;-64
2023/05/17 10:29:41;;;;;;;7.60;2.00;;;14.90;36.60;;;;;;5092990;28;20988;-64
2023/05/17 10:32:13;;;;;;;7.93;1.90;;;15.40;40.40;;;;;;5092641;28;20482;-64
2023/05/17 10:34:40;;;;;;;7.30;1.50;;;16.20;37.60;;;;;;5094052;28;20812;-65
2023/05/17 10:37:07;;;;;;;6.83;2.20;;;16.50;31.60;;;;;;5094434;28;20482;-64
2023/05/17 10:39:37;;;;;;;6.27;2.43;;;17.50;29.50;;;;;;5092359;28;20455;-65
2023/05/17 10:42:07;;;;;;;5.00;1.93;;;17.30;29.90;;;;;;5092271;28;20533;-65
2023/05/17 10:44:36;;;;;;;9.13;2.40;;;16.40;31.90;;;;;;5093733;28;20441;-64
2023/05/17 10:47:04;;;;;;;11.43;2.30;;;15.90;39.20;;;;;;5094229;28;20453;-64
2023/05/17 10:49:33;;;;;;;8.23;2.20;;;15.90;39.20;;;;;;5092681;28;20457;-64
2023/05/17 10:52:11;;;;;;;8.90;2.20;;;17.00;48.70;;;;;;5092198;28;20475;-65
2023/05/17 10:54:40;;;;;;;16.70;2.40;;;17.00;38.10;;;;;;5093274;28;20456;-64
2023/05/17 10:57:08;;;;;;;15.53;2.93;;;16.80;35.30;;;;;;5094277;28;20513;-64
2023/05/17 10:59:35;;;;;;;6.43;1.60;;;16.00;34.50;;;;;;5092547;28;20455;-64
2023/05/17 11:02:04;;;;;;;6.50;1.20;;;16.90;36.60;;;;;;5091835;28;20463;-64
2023/05/17 11:04:37;;;;;;;5.63;1.60;;;17.10;28.70;;;;;;5092789;28;20456;-64
2023/05/17 11:07:24;;;;;;;11.33;2.03;;;17.80;25.50;;;;;;5094035;28;20817;-65
2023/05/17 11:09:54;;;;;;;10.00;2.50;;;16.80;25.90;;;;;;5091230;28;20555;-64
2023/05/17 11:12:34;;;;;;;11.70;1.80;;;16.70;32.20;;;;;;5091378;28;20480;-64
2023/05/17 11:15:04;;;;;;;8.20;2.00;;;17.30;32.80;;;;;;5093023;28;20450;-64
2023/05/17 11:17:35;;;;;;;12.83;2.20;;;17.70;31.20;;;;;;5093255;28;20949;-65
2023/05/17 11:20:08;;;;;;;7.03;1.30;;;17.90;31.70;;;;;;5091933;28;20454;-65
2023/05/17 11:22:37;;;;;;;8.00;1.47;;;17.80;25.40;;;;;;5092228;28;20846;-65
2023/05/17 11:25:08;;;;;;;10.27;2.10;;;17.60;24.20;;;;;;5093238;28;20456;-64
2023/05/17 11:27:43;;;;;;;8.23;2.07;;;17.70;28.90;;;;;;5093645;28;20868;-65
2023/05/17 11:30:20;;;;;;;12.30;2.20;;;18.10;25.40;;;;;;5091932;28;20453;-64
2023/05/17 11:32:49;;;;;;;13.47;2.23;;;18.00;25.60;;;;;;5091954;28;20483;-64
2023/05/17 11:35:19;;;;;;;11.33;1.87;;;18.90;26.20;;;;;;5093558;28;20450;-65
2023/05/17 11:37:48;;;;;;;10.87;1.77;;;18.60;26.00;;;;;;5093308;28;20510;-66
2023/05/17 11:40:25;;;;;;;19.53;2.43;;;17.20;25.60;;;;;;5091533;28;20476;-66
2023/05/17 11:43:10;;;;;;;7.70;1.73;;;16.40;26.00;;;;;;5091799;28;20450;-64
2023/05/17 11:45:43;;;;;;;9.40;3.60;;;16.50;32.00;;;;;;5093420;28;20528;-64
2023/05/17 11:48:11;;;;;;;6.97;1.60;;;17.70;24.10;;;;;;5092162;28;20483;-64
2023/05/17 11:50:39;;;;;;;8.53;1.90;;;17.80;18.10;;;;;;5091042;28;20673;-64
2023/05/17 11:53:06;;;;;;;11.97;1.93;;;16.70;19.60;;;;;;5091508;28;20458;-64
2023/05/17 11:55:34;;;;;;;12.90;2.93;;;16.30;19.70;;;;;;5092893;28;20548;-64
2023/05/17 11:58:02;;;;;;;11.00;1.97;;;16.70;19.60;;;;;;5073029;28;20479;-66
2023/05/17 12:00:29;;;;;;;6.63;1.77;;;17.70;22.10;;;;;;5074256;28;20945;-65
2023/05/17 12:02:56;;;;;;;10.50;2.37;;;17.70;18.00;;;;;;5091085;28;20810;-64
2023/05/17 12:05:23;;;;;;;9.57;2.27;;;18.50;16.80;;;;;;5075858;28;20457;-64
2023/05/17 12:07:52;;;;;;;8.50;1.80;;;17.80;19.30;;;;;;5071755;28;20476;-64
2023/05/17 12:10:20;;;;;;;7.47;1.80;;;17.60;20.30;;;;;;5069458;28;20472;-64
2023/05/17 12:12:47;;;;;;;8.20;2.33;;;17.10;24.90;;;;;;5085255;28;20483;-63
2023/05/17 12:15:19;;;;;;;5.97;1.55;;;17.40;25.10;;;;;;5091519;28;20456;-64
2023/05/17 12:17:48;;;;;;;13.63;2.30;;;17.90;20.30;;;;;;5092749;28;20276;-64
2023/05/17 12:20:16;;;;;;;8.38;1.70;;;17.70;18.00;;;;;;5090382;28;20453;-63
2023/05/17 12:22:53;;;;;;;18.43;2.27;;;18.50;17.40;;;;;;5083213;28;20193;-64
2023/05/17 12:25:23;;;;;;;7.70;1.73;;;17.70;18.00;;;;;;5072864;28;20857;-64
2023/05/17 12:27:50;;;;;;;6.13;1.67;;;17.10;19.90;;;;;;5072131;28;20450;-65
2023/05/17 12:30:18;;;;;;;17.80;2.83;;;17.10;21.60;;;;;;5070831;28;20545;-66
2023/05/17 12:32:45;;;;;;;6.93;1.50;;;17.90;19.40;;;;;;5070975;28;20471;-67